createdAt,value
2023-05-14T00:00:47.928Z,8.73
2023-05-14T00:03:15.251Z,8.82
2023-05-14T00:05:42.430Z,8.23
2023-05-14T00:08:09.487Z,21.50
2023-05-14T00:10:36.567Z,7.97
2023-05-14T00:13:03.625Z,8.52
2023-05-14T00:15:32.278Z,8.13
2023-05-14T00:18:00.733Z,6.57
2023-05-14T00:20:27.807Z,7.22
2023-05-14T00:22:54.887Z,6.93
2023-05-14T00:25:21.975Z,7.43
2023-05-14T00:27:49.017Z,8.55
2023-05-14T00:30:16.137Z,7.35
2023-05-14T00:32:43.291Z,8.55
2023-05-14T00:35:10.358Z,7.37
2023-05-14T00:37:37.831Z,7.88
2023-05-14T00:40:08.730Z,7.18
2023-05-14T00:42:35.791Z,7.38
2023-05-14T00:45:02.939Z,8.60
2023-05-14T00:47:30.056Z,8.37
2023-05-14T00:49:57.442Z,8.00
2023-05-14T00:52:24.500Z,7.75
2023-05-14T00:54:52.462Z,10.13
2023-05-14T00:57:19.670Z,10.15
2023-05-14T00:59:47.090Z,9.23
2023-05-14T01:02:14.506Z,9.18
2023-05-14T01:04:42.141Z,7.28
2023-05-14T01:07:31.228Z,8.80
2023-05-14T01:10:06.615Z,8.90
2023-05-14T01:12:38.077Z,8.63
2023-05-14T01:15:11.024Z,7.93
2023-05-14T01:18:11.314Z,7.63
2023-05-14T01:20:38.790Z,7.63
2023-05-14T01:23:06.007Z,7.80
2023-05-14T01:25:33.750Z,9.03
2023-05-14T01:28:13.200Z,8.70
2023-05-14T01:31:03.894Z,7.82
2023-05-14T01:33:33.634Z,9.18
2023-05-14T01:36:00.824Z,8.63
2023-05-14T01:38:31.664Z,10.23
2023-05-14T01:40:59.367Z,8.07
2023-05-14T01:43:27.158Z,10.95
2023-05-14T01:45:55.886Z,7.68
2023-05-14T01:48:23.212Z,8.40
2023-05-14T01:50:50.703Z,8.07
2023-05-14T01:53:17.748Z,7.90
2023-05-14T01:55:44.810Z,9.32
2023-05-14T01:58:12.370Z,9.82
2023-05-14T02:00:39.416Z,8.27
2023-05-14T02:03:09.218Z,8.07
2023-05-14T02:05:36.460Z,8.57
2023-05-14T02:08:03.655Z,8.02
2023-05-14T02:10:30.813Z,10.23
2023-05-14T02:12:58.056Z,8.55
2023-05-14T02:15:25.621Z,8.27
2023-05-14T02:17:52.905Z,9.82
2023-05-14T02:20:20.219Z,9.18
2023-05-14T02:22:47.567Z,8.05
2023-05-14T02:25:14.761Z,10.32
2023-05-14T02:27:41.845Z,7.70
2023-05-14T02:30:10.468Z,8.10
2023-05-14T02:32:38.154Z,8.10
2023-05-14T02:35:06.221Z,8.43
2023-05-14T02:37:34.882Z,8.52
2023-05-14T02:40:01.975Z,8.10
2023-05-14T02:42:29.304Z,8.27
2023-05-14T02:44:56.544Z,10.27
2023-05-14T02:47:23.830Z,8.93
2023-05-14T02:49:51.591Z,8.23
2023-05-14T02:52:18.666Z,7.43
2023-05-14T02:54:46.016Z,8.43
2023-05-14T02:57:13.589Z,7.97
2023-05-14T02:59:40.640Z,8.13
2023-05-14T03:02:08.125Z,10.02
2023-05-14T03:04:35.573Z,8.43
2023-05-14T03:07:02.642Z,7.88
2023-05-14T03:09:29.809Z,6.93
2023-05-14T03:11:56.963Z,7.57
2023-05-14T03:14:24.016Z,9.00
2023-05-14T03:16:51.129Z,7.43
2023-05-14T03:19:18.194Z,8.18
2023-05-14T03:21:45.662Z,8.20
2023-05-14T03:24:12.741Z,7.32
2023-05-14T03:26:39.908Z,7.00
2023-05-14T03:29:07.019Z,8.50
2023-05-14T03:31:34.315Z,7.88
2023-05-14T03:34:01.477Z,8.23
2023-05-14T03:36:28.594Z,6.70
2023-05-14T03:38:55.683Z,8.93
2023-05-14T03:41:23.030Z,7.57
2023-05-14T03:43:50.080Z,7.60
2023-05-14T03:46:17.213Z,8.88
2023-05-14T03:48:44.639Z,7.15
2023-05-14T03:51:11.721Z,8.52
2023-05-14T03:53:38.796Z,9.53
2023-05-14T03:56:05.915Z,7.40
2023-05-14T03:58:32.991Z,7.22
2023-05-14T04:01:00.564Z,7.85
2023-05-14T04:03:27.798Z,8.13
2023-05-14T04:05:55.059Z,8.90
2023-05-14T04:08:22.128Z,9.82
2023-05-14T04:10:50.003Z,7.72
2023-05-14T04:13:17.134Z,9.30
2023-05-14T04:15:44.212Z,10.05
2023-05-14T04:18:11.511Z,8.20
2023-05-14T04:20:38.705Z,7.43
2023-05-14T04:23:05.746Z,7.47
2023-05-14T04:25:32.809Z,8.02
2023-05-14T04:27:59.870Z,7.88
2023-05-14T04:30:26.972Z,8.87
2023-05-14T04:32:54.197Z,9.50
2023-05-14T04:35:24.116Z,8.57
2023-05-14T04:37:52.091Z,8.80
2023-05-14T04:40:19.281Z,8.38
2023-05-14T04:42:46.304Z,8.23
2023-05-14T04:45:13.604Z,10.25
2023-05-14T04:47:41.643Z,9.20
2023-05-14T04:50:09.726Z,9.43
2023-05-14T04:52:36.829Z,9.52
2023-05-14T04:55:04.023Z,10.70
2023-05-14T04:57:31.077Z,11.05
2023-05-14T04:59:58.169Z,10.45
2023-05-14T05:02:25.527Z,9.73
2023-05-14T05:04:52.585Z,11.95
2023-05-14T05:07:19.632Z,8.70
2023-05-14T05:09:46.766Z,8.73
2023-05-14T05:12:13.829Z,10.15
2023-05-14T05:14:40.905Z,11.07
2023-05-14T05:17:08.352Z,10.57
2023-05-14T05:19:43.027Z,9.93
2023-05-14T05:22:11.736Z,8.95
2023-05-14T05:24:38.865Z,10.38
2023-05-14T05:27:06.171Z,9.32
2023-05-14T05:29:33.252Z,8.80
2023-05-14T05:32:00.490Z,9.43
2023-05-14T05:34:27.765Z,9.15
2023-05-14T05:36:54.823Z,9.13
2023-05-14T05:39:21.997Z,9.75
2023-05-14T05:41:49.353Z,8.50
2023-05-14T05:44:16.413Z,8.43
2023-05-14T05:46:43.556Z,9.80
2023-05-14T05:49:10.625Z,9.40
2023-05-14T05:51:37.746Z,9.32
2023-05-14T05:54:04.805Z,8.60
2023-05-14T05:56:31.954Z,10.73
2023-05-14T05:58:59.035Z,8.18
2023-05-14T06:01:26.701Z,7.68
2023-05-14T06:03:53.814Z,9.25
2023-05-14T06:06:21.722Z,9.77
2023-05-14T06:08:48.991Z,9.67
2023-05-14T06:11:16.870Z,9.18
2023-05-14T06:13:44.149Z,8.68
2023-05-14T06:16:11.264Z,9.98
2023-05-14T06:18:38.475Z,10.93
2023-05-14T06:21:05.710Z,7.73
2023-05-14T06:23:33.332Z,7.95
2023-05-14T06:26:00.568Z,8.48
2023-05-14T06:28:27.673Z,10.25
2023-05-14T06:30:54.779Z,9.00
2023-05-14T06:33:29.646Z,6.27
2023-05-14T06:36:00.972Z,7.93
2023-05-14T06:38:28.057Z,6.43
2023-05-14T06:40:55.223Z,7.15
2023-05-14T06:43:22.272Z,7.53
2023-05-14T06:45:50.483Z,6.20
2023-05-14T06:48:21.104Z,6.40
2023-05-14T06:50:49.173Z,5.70
2023-05-14T06:53:16.454Z,6.30
2023-05-14T06:55:43.572Z,6.30
2023-05-14T06:58:10.997Z,6.97
2023-05-14T07:00:38.057Z,6.28
2023-05-14T07:03:05.180Z,8.48
2023-05-14T07:05:32.531Z,7.53
2023-05-14T07:07:59.817Z,9.20
2023-05-14T07:10:27.185Z,6.47
2023-05-14T07:12:54.358Z,8.73
2023-05-14T07:15:21.526Z,6.20
2023-05-14T07:17:49.007Z,6.68
2023-05-14T07:20:16.129Z,6.13
2023-05-14T07:22:43.216Z,5.70
2023-05-14T07:25:10.287Z,5.63
2023-05-14T07:27:37.398Z,5.35
2023-05-14T07:30:04.675Z,6.88
2023-05-14T07:32:31.778Z,5.15
2023-05-14T07:34:58.994Z,5.80
2023-05-14T07:37:26.121Z,5.32
2023-05-14T07:39:53.723Z,5.85
2023-05-14T07:42:34.499Z,6.05
2023-05-14T07:45:04.136Z,6.13
2023-05-14T07:47:31.611Z,5.10
2023-05-14T07:49:58.998Z,6.25
2023-05-14T07:52:26.134Z,6.13
2023-05-14T07:54:53.416Z,5.03
2023-05-14T07:57:20.536Z,5.07
2023-05-14T07:59:48.201Z,4.83
2023-05-14T08:02:16.806Z,3.85
2023-05-14T08:04:44.900Z,5.53
2023-05-14T08:07:12.096Z,4.53
2023-05-14T08:09:39.242Z,4.32
2023-05-14T08:12:06.758Z,4.43
2023-05-14T08:14:33.960Z,5.18
2023-05-14T08:17:01.045Z,4.65
2023-05-14T08:19:28.491Z,4.25
2023-05-14T08:21:55.574Z,4.90
2023-05-14T08:24:22.634Z,5.57
2023-05-14T08:26:49.757Z,5.47
2023-05-14T08:29:16.979Z,6.78
2023-05-14T08:31:44.197Z,4.85
2023-05-14T08:34:11.275Z,5.15
2023-05-14T08:36:41.480Z,5.67
2023-05-14T08:39:08.664Z,5.15
2023-05-14T08:41:36.349Z,4.93
2023-05-14T08:44:10.760Z,9.40
2023-05-14T08:46:38.868Z,4.97
2023-05-14T08:49:18.496Z,5.63
2023-05-14T08:51:48.402Z,4.78
2023-05-14T08:54:18.754Z,4.95
2023-05-14T08:56:46.461Z,5.90
2023-05-14T08:59:13.576Z,4.88
2023-05-14T09:01:47.680Z,4.70
2023-05-14T09:04:21.150Z,5.25
2023-05-14T09:06:53.486Z,5.22
2023-05-14T09:09:23.762Z,6.90
2023-05-14T09:11:52.043Z,6.43
2023-05-14T09:14:20.088Z,8.37
2023-05-14T09:16:49.326Z,6.50
2023-05-14T09:19:19.036Z,4.60
2023-05-14T09:21:47.747Z,5.57
2023-05-14T09:24:22.296Z,6.72
2023-05-14T09:26:53.718Z,6.90
2023-05-14T09:29:20.853Z,5.68
2023-05-14T09:31:50.675Z,6.38
2023-05-14T09:34:28.946Z,6.32
2023-05-14T09:37:01.282Z,5.53
2023-05-14T09:39:29.276Z,6.50
2023-05-14T09:41:56.705Z,7.25
2023-05-14T09:44:24.645Z,7.95
2023-05-14T09:46:52.540Z,7.15
2023-05-14T09:49:20.148Z,7.50
2023-05-14T09:51:48.609Z,7.37
2023-05-14T09:54:15.920Z,6.55
2023-05-14T09:56:43.529Z,8.38
2023-05-14T09:59:10.905Z,7.10
2023-05-14T10:01:38.389Z,6.95
2023-05-14T10:04:07.541Z,8.17
2023-05-14T10:06:38.343Z,7.20
2023-05-14T10:09:12.046Z,6.72
2023-05-14T10:11:43.014Z,6.97
2023-05-14T10:14:39.005Z,6.05
2023-05-14T10:17:06.517Z,6.97
2023-05-14T10:19:35.356Z,7.88
2023-05-14T10:22:07.642Z,5.95
2023-05-14T10:24:34.959Z,10.05
2023-05-14T10:27:02.283Z,7.05
2023-05-14T10:29:34.567Z,6.70
2023-05-14T10:32:06.552Z,7.57
2023-05-14T10:34:38.684Z,6.15
2023-05-14T10:37:08.306Z,5.68
2023-05-14T10:39:41.363Z,6.32
2023-05-14T10:42:10.677Z,6.50
2023-05-14T10:44:42.901Z,7.22
2023-05-14T10:47:09.982Z,6.63
2023-05-14T10:49:43.407Z,5.80
2023-05-14T10:52:12.249Z,5.50
2023-05-14T10:54:39.574Z,6.97
2023-05-14T10:57:11.421Z,6.45
2023-05-14T10:59:42.009Z,5.57
2023-05-14T11:02:28.615Z,7.03
2023-05-14T11:04:58.134Z,5.43
2023-05-14T11:07:28.618Z,4.87
2023-05-14T11:10:00.640Z,5.70
2023-05-14T11:12:27.975Z,6.72
2023-05-14T11:14:58.081Z,5.07
2023-05-14T11:17:26.729Z,5.95
2023-05-14T11:19:54.494Z,5.43
2023-05-14T11:22:21.981Z,4.55
2023-05-14T11:24:49.101Z,4.60
2023-05-14T11:27:17.270Z,3.97
2023-05-14T11:29:46.125Z,4.45
2023-05-14T11:32:14.091Z,4.47
2023-05-14T11:34:42.132Z,5.45
2023-05-14T11:37:10.220Z,4.05
2023-05-14T11:39:40.267Z,4.45
2023-05-14T11:42:12.276Z,7.30
2023-05-14T11:44:39.586Z,4.37
2023-05-14T11:47:06.965Z,3.97
2023-05-14T11:49:37.650Z,4.93
2023-05-14T11:52:06.381Z,4.65
2023-05-14T11:54:34.095Z,3.53
2023-05-14T11:57:04.530Z,3.73
2023-05-14T11:59:32.551Z,3.97
2023-05-14T12:01:59.658Z,3.83
2023-05-14T12:04:26.844Z,5.40
2023-05-14T12:06:54.007Z,7.50
2023-05-14T12:09:21.980Z,4.63
2023-05-14T12:11:50.701Z,4.22
2023-05-14T12:14:24.599Z,6.30
2023-05-14T12:16:51.920Z,4.57
2023-05-14T12:19:20.399Z,3.38
2023-05-14T12:21:48.912Z,4.03
2023-05-14T12:24:18.278Z,4.18
2023-05-14T12:26:47.138Z,4.18
2023-05-14T12:29:15.412Z,3.83
2023-05-14T12:31:47.310Z,4.25
2023-05-14T12:34:14.862Z,3.47
2023-05-14T12:36:42.887Z,4.10
2023-05-14T12:39:10.711Z,3.42
2023-05-14T12:41:37.796Z,4.15
2023-05-14T12:44:05.085Z,3.97
2023-05-14T12:46:32.873Z,4.70
2023-05-14T12:49:00.244Z,7.25
2023-05-14T12:51:27.295Z,5.65
2023-05-14T12:53:54.377Z,4.60
2023-05-14T12:56:21.964Z,4.68
2023-05-14T12:58:49.101Z,4.77
2023-05-14T13:01:16.502Z,4.15
2023-05-14T13:03:43.672Z,4.55
2023-05-14T13:06:10.998Z,4.40
2023-05-14T13:08:38.167Z,4.63
2023-05-14T13:11:05.304Z,4.17
2023-05-14T13:13:32.368Z,6.05
2023-05-14T13:15:59.572Z,4.50
2023-05-14T13:18:26.898Z,4.78
2023-05-14T13:20:54.096Z,4.47
2023-05-14T13:23:21.161Z,4.63
2023-05-14T13:25:50.029Z,4.47
2023-05-14T13:28:17.241Z,5.18
2023-05-14T13:31:04.312Z,5.13
2023-05-14T13:33:31.410Z,5.85
2023-05-14T13:35:58.474Z,4.67
2023-05-14T13:38:25.487Z,5.47
2023-05-14T13:40:52.512Z,4.53
2023-05-14T13:43:19.687Z,5.82
2023-05-14T13:45:46.804Z,4.82
2023-05-14T13:48:14.063Z,4.67
2023-05-14T13:50:41.221Z,4.25
2023-05-14T13:53:08.306Z,4.75
2023-05-14T13:55:35.398Z,4.07
2023-05-14T13:58:02.595Z,4.68
2023-05-14T14:00:29.644Z,4.73
2023-05-14T14:02:56.843Z,4.53
2023-05-14T14:05:28.247Z,3.88
2023-05-14T14:08:01.143Z,3.92
2023-05-14T14:10:36.496Z,4.63
2023-05-14T14:13:03.584Z,4.83
2023-05-14T14:15:30.686Z,4.15
2023-05-14T14:17:57.845Z,4.22
2023-05-14T14:20:24.905Z,5.38
2023-05-14T14:22:51.964Z,4.90
2023-05-14T14:25:19.060Z,4.77
2023-05-14T14:27:47.474Z,5.03
2023-05-14T14:30:16.502Z,4.95
2023-05-14T14:32:47.837Z,4.75
2023-05-14T14:35:16.471Z,5.28
2023-05-14T14:37:46.018Z,4.63
2023-05-14T14:40:13.111Z,6.65
2023-05-14T14:42:40.202Z,5.60
2023-05-14T14:45:07.776Z,6.15
2023-05-14T14:47:36.259Z,11.23
2023-05-14T14:50:03.456Z,24.33
2023-05-14T14:52:30.575Z,32.90
2023-05-14T14:54:57.806Z,13.68
2023-05-14T14:57:25.045Z,14.98
2023-05-14T14:59:52.113Z,9.73
2023-05-14T15:02:19.928Z,9.40
2023-05-14T15:04:47.037Z,10.88
2023-05-14T15:07:16.543Z,8.55
2023-05-14T15:09:46.236Z,8.27
2023-05-14T15:12:14.255Z,8.27
2023-05-14T15:14:41.430Z,8.10
2023-05-14T15:17:08.754Z,7.63
2023-05-14T15:19:36.008Z,7.80
2023-05-14T15:22:03.041Z,9.68
2023-05-14T15:24:30.173Z,7.07
2023-05-14T15:26:57.214Z,8.13
2023-05-14T15:29:24.497Z,7.50
2023-05-14T15:31:51.648Z,7.90
2023-05-14T15:34:18.705Z,8.13
2023-05-14T15:36:45.825Z,7.82
2023-05-14T15:39:12.886Z,7.40
2023-05-14T15:41:40.010Z,6.88
2023-05-14T15:44:07.288Z,8.63
2023-05-14T15:46:34.443Z,6.68
2023-05-14T15:49:01.625Z,8.38
2023-05-14T15:51:28.839Z,6.30
2023-05-14T15:53:55.942Z,7.15
2023-05-14T15:56:23.702Z,7.25
2023-05-14T15:58:50.813Z,7.25
2023-05-14T16:01:18.948Z,9.88
2023-05-14T16:03:46.188Z,8.37
2023-05-14T16:06:13.362Z,6.85
2023-05-14T16:08:41.408Z,7.50
2023-05-14T16:11:08.563Z,8.40
2023-05-14T16:13:37.763Z,7.80
2023-05-14T16:16:05.401Z,7.47
2023-05-14T16:18:33.389Z,8.00
2023-05-14T16:21:00.805Z,7.85
2023-05-14T16:23:27.961Z,8.32
2023-05-14T16:25:55.078Z,9.70
2023-05-14T16:28:22.208Z,6.57
2023-05-14T16:30:49.302Z,7.55
2023-05-14T16:33:16.396Z,9.60
2023-05-14T16:35:43.670Z,9.00
2023-05-14T16:38:10.965Z,7.07
2023-05-14T16:40:37.982Z,6.80
2023-05-14T16:43:05.133Z,6.28
2023-05-14T16:45:34.243Z,6.80
2023-05-14T16:48:01.469Z,7.90
2023-05-14T16:50:28.765Z,7.80
2023-05-14T16:52:55.836Z,8.40
2023-05-14T16:55:23.233Z,8.32
2023-05-14T16:57:50.598Z,6.78
2023-05-14T17:00:18.233Z,7.70
2023-05-14T17:02:48.941Z,6.75
2023-05-14T17:05:16.268Z,8.27
2023-05-14T17:07:43.361Z,6.65
2023-05-14T17:10:10.596Z,8.55
2023-05-14T17:12:37.761Z,8.68
2023-05-14T17:15:08.184Z,9.02
2023-05-14T17:17:35.432Z,7.50
2023-05-14T17:20:03.294Z,8.05
2023-05-14T17:22:30.533Z,13.05
2023-05-14T17:24:57.674Z,12.50
2023-05-14T17:27:24.790Z,13.05
2023-05-14T17:29:52.490Z,13.30
2023-05-14T17:32:19.687Z,13.38
2023-05-14T17:34:46.764Z,9.95
2023-05-14T17:37:13.978Z,9.98
2023-05-14T17:39:41.061Z,9.95
2023-05-14T17:42:09.066Z,9.17
2023-05-14T17:44:37.066Z,10.52
2023-05-14T17:47:04.648Z,9.63
2023-05-14T17:49:31.866Z,9.05
2023-05-14T17:51:59.004Z,9.27
2023-05-14T17:54:26.070Z,10.23
2023-05-14T17:56:53.797Z,11.00
2023-05-14T17:59:22.515Z,12.35
2023-05-14T18:01:51.247Z,10.45
2023-05-14T18:04:18.343Z,11.35
2023-05-14T18:06:46.942Z,9.97
2023-05-14T18:09:14.141Z,9.43
2023-05-14T18:11:41.468Z,11.63
2023-05-14T18:14:08.610Z,10.82
2023-05-14T18:16:36.956Z,9.88
2023-05-14T18:19:04.516Z,10.40
2023-05-14T18:21:31.585Z,11.02
2023-05-14T18:23:58.673Z,12.70
2023-05-14T18:26:26.594Z,10.60
2023-05-14T18:28:53.641Z,10.40
2023-05-14T18:31:20.849Z,10.37
2023-05-14T18:33:48.040Z,16.30
2023-05-14T18:36:15.124Z,14.90
2023-05-14T18:38:42.244Z,14.68
2023-05-14T18:41:09.273Z,13.95
2023-05-14T18:43:36.304Z,15.03
2023-05-14T18:46:03.442Z,14.85
2023-05-14T18:48:31.139Z,13.02
2023-05-14T18:50:58.188Z,12.65
2023-05-14T18:53:25.564Z,12.75
2023-05-14T18:55:52.602Z,11.77
2023-05-14T18:58:19.692Z,14.02
2023-05-14T19:00:46.759Z,13.35
2023-05-14T19:03:14.120Z,15.45
2023-05-14T19:05:41.270Z,13.35
2023-05-14T19:08:08.343Z,10.80
2023-05-14T19:10:35.428Z,13.10
2023-05-14T19:13:02.916Z,13.35
2023-05-14T19:15:30.098Z,11.15
2023-05-14T19:17:57.196Z,11.52
2023-05-14T19:20:24.262Z,11.83
2023-05-14T19:22:51.360Z,12.27
2023-05-14T19:25:18.412Z,15.80
2023-05-14T19:27:45.639Z,14.77
2023-05-14T19:30:13.384Z,15.20
2023-05-14T19:32:40.617Z,13.90
2023-05-14T19:35:08.026Z,11.82
2023-05-14T19:37:35.250Z,11.73
2023-05-14T19:40:02.330Z,9.82
2023-05-14T19:42:29.477Z,11.60
2023-05-14T19:44:56.524Z,9.43
2023-05-14T19:47:23.593Z,8.57
2023-05-14T19:49:50.723Z,5.93
2023-05-14T19:52:17.843Z,7.18
2023-05-14T19:54:44.876Z,6.80
2023-05-14T19:57:12.001Z,5.87
2023-05-14T19:59:39.322Z,5.93
2023-05-14T20:02:06.361Z,6.18
2023-05-14T20:04:33.461Z,4.75
2023-05-14T20:07:01.255Z,4.45
2023-05-14T20:09:28.326Z,4.37
2023-05-14T20:11:55.363Z,6.13
2023-05-14T20:14:22.491Z,4.40
2023-05-14T20:16:49.679Z,7.05
2023-05-14T20:19:16.912Z,5.63
2023-05-14T20:21:44.061Z,7.57
2023-05-14T20:24:11.101Z,7.45
2023-05-14T20:26:38.185Z,5.72
2023-05-14T20:29:05.315Z,5.90
2023-05-14T20:31:32.345Z,5.38
2023-05-14T20:33:59.367Z,4.57
2023-05-14T20:36:26.474Z,5.25
2023-05-14T20:38:53.591Z,5.47
2023-05-14T20:41:20.904Z,8.30
2023-05-14T20:43:47.953Z,5.88
2023-05-14T20:46:15.023Z,6.37
2023-05-14T20:48:42.133Z,3.75
2023-05-14T20:51:09.246Z,5.30
2023-05-14T20:53:38.938Z,5.97
2023-05-14T20:56:06.544Z,4.10
2023-05-14T20:58:33.664Z,5.10
2023-05-14T21:01:00.815Z,4.22
2023-05-14T21:03:28.110Z,5.43
2023-05-14T21:05:56.817Z,7.53
2023-05-14T21:08:23.847Z,4.40
2023-05-14T21:10:50.892Z,5.27
2023-05-14T21:13:18.198Z,3.80
2023-05-14T21:15:45.324Z,3.60
2023-05-14T21:18:12.966Z,5.30
2023-05-14T21:20:40.739Z,5.72
2023-05-14T21:23:07.800Z,6.47
2023-05-14T21:25:34.830Z,5.53
2023-05-14T21:28:01.922Z,5.97
2023-05-14T21:30:29.019Z,5.05
2023-05-14T21:32:56.200Z,4.47
2023-05-14T21:35:23.527Z,5.17
2023-05-14T21:37:51.276Z,5.40
2023-05-14T21:40:18.305Z,4.35
2023-05-14T21:42:45.343Z,5.22
2023-05-14T21:45:12.479Z,3.88
2023-05-14T21:47:39.579Z,4.93
2023-05-14T21:50:07.179Z,5.68
2023-05-14T21:52:34.257Z,5.47
2023-05-14T21:55:01.293Z,5.18
2023-05-14T21:57:29.258Z,5.78
2023-05-14T21:59:58.826Z,6.13
2023-05-14T22:02:26.875Z,5.35
2023-05-14T22:04:53.958Z,6.30
2023-05-14T22:07:21.279Z,7.93
2023-05-14T22:09:49.338Z,4.45
2023-05-14T22:12:17.174Z,7.70
2023-05-14T22:14:44.232Z,6.18
2023-05-14T22:17:12.606Z,6.43
2023-05-14T22:19:39.643Z,6.05
2023-05-14T22:22:06.725Z,8.38
2023-05-14T22:24:33.764Z,7.33
2023-05-14T22:27:00.841Z,7.38
2023-05-14T22:29:27.908Z,5.32
2023-05-14T22:31:55.010Z,6.03
2023-05-14T22:34:22.231Z,6.47
2023-05-14T22:36:49.293Z,6.83
2023-05-14T22:39:16.359Z,8.93
2023-05-14T22:41:43.451Z,6.28
2023-05-14T22:44:10.526Z,7.22
2023-05-14T22:46:37.608Z,8.40
2023-05-14T22:49:04.695Z,5.30
2023-05-14T22:51:31.757Z,5.55
2023-05-14T22:53:58.781Z,9.20
2023-05-14T22:56:25.807Z,6.32
2023-05-14T22:58:52.960Z,5.50
2023-05-14T23:01:20.009Z,6.13
2023-05-14T23:03:47.086Z,5.88
2023-05-14T23:06:14.745Z,6.15
2023-05-14T23:08:42.125Z,5.30
2023-05-14T23:11:09.161Z,6.38
2023-05-14T23:13:36.541Z,6.00
2023-05-14T23:16:03.781Z,6.55
2023-05-14T23:18:30.967Z,10.68
2023-05-14T23:20:58.241Z,8.38
2023-05-14T23:23:25.637Z,7.20
2023-05-14T23:25:53.912Z,6.10
2023-05-14T23:28:20.994Z,7.93
2023-05-14T23:30:48.064Z,7.82
2023-05-14T23:33:15.155Z,8.30
2023-05-14T23:35:42.520Z,7.03
2023-05-14T23:38:09.580Z,8.43
2023-05-14T23:40:37.034Z,8.52
2023-05-14T23:43:04.145Z,8.30
2023-05-14T23:45:31.341Z,7.85
2023-05-14T23:47:58.790Z,8.05
2023-05-14T23:50:26.006Z,8.57
2023-05-14T23:52:53.901Z,7.60
2023-05-14T23:55:21.018Z,7.72
2023-05-14T23:57:48.812Z,6.75
